Edenville, MI (48620)

4:52 PM EDT on May 29, 2017 (GMT -0400)
Meridian Public Schools | | Change Station

Elev 656 ft 43.71 °N, 84.37 °W | Updated 27 seconds ago

Clear
Clear
74.8 °F
Feels Like 77 °F
N
17.0
Wind Variable Wind from SW

Today
High -- | Low -- °F
--% Chance of Precip.
Yesterday
High -- | Low -- °F
Precip. -- in
Pressure 29.74 in
Visibility 7.0 miles
Clouds Clear
Heat Index 77 °F
Dew Point 44 °F
Humidity 34%
Rainfall 0.00 in
Snow Depth Not available.
5:59 AM 9:10 PM
Waxing Crescent, 22% visible
METAR KIKW 292034Z AUTO 26022G29KT 7SM CLR 25/04 A2974 RMK AO2 T02500035
Pressure 29.74 in
Visibility 7.0 miles
Clouds Clear
Heat Index 77 °F
Dew Point 44 °F
Humidity 34%
Rainfall 0.00 in
Snow Depth Not available.
5:59 AM 9:10 PM
Waxing Crescent, 22% visible
METAR KIKW 292034Z AUTO 26022G29KT 7SM CLR 25/04 A2974 RMK AO2 T02500035

Get Severe Weather Alerts

Thanks for signing up!

Be on the lookout for a verification email in your inbox.

You'll start receiving the daily forecast at 6 AM.

×

10-Day Weather Forecast

Almanac

Astronomy

May. 29, 2017 Rise Set
Actual Time
Civil Twilight
Nautical Twilight
Astronomical Twilight
Moon
Length of Visible Light
Length of Day
Tomorrow will be .
, % of the Moon is Illuminated

Today's Extremes

State Highs State Lows

Community

WunderPhotos

Category 6

Welcome to Category 6. This is the collective home for Weather Underground's featured writeups by Dr. Jeff Masters (right), Bob Henson (left), Chris Burt, and other regular contributors.

Nearby

Air Quality

  Air Quality AQ Index Pollutant
Not available.

Snow Depth

Station Depth Elevation

Earthquake Activity

City Distance Mag. Time & Date
Minimum magnitude displayed is 2.5.

Coastal Water Temperatures

Place Temperature

Stations

Nearby Weather Stations

Station Location Temp. Windchill Dew Point Humidity Wind Precip. Elev Updated Type
                   

Watches & Warnings

There are currently no watches in effect.